Time;durP1;ratioP1;P1;durP2;ratioP2;P2;SDS_P1;SDS_P2;PMS_P1;PMS_P2;Temp;Humidity;BMP_temperature;BMP_pressure;BME280_temperature;BME280_humidity;BME280_pressure;Samples;Min_cycle;Max_cycle;Signal;HPM_P1;HPM_P2
2022/01/05 00:04:55;;;;;;;3.85;1.30;;;;;;;6.31;66.72;98070.09;10445544;28;20049;-83
2022/01/05 00:09:56;;;;;;;4.60;1.42;;;;;;;6.23;66.88;98069.78;10438752;28;20092;-82
2022/01/05 00:14:58;;;;;;;4.60;1.40;;;;;;;6.21;66.77;98060.44;10437917;28;20571;-82
2022/01/05 00:20:01;;;;;;;3.95;1.50;;;;;;;6.18;66.62;98056.31;10436615;28;20080;-83
2022/01/05 00:25:03;;;;;;;3.65;1.30;;;;;;;6.06;67.06;98040.78;10445631;28;20510;-83
2022/01/05 00:30:06;;;;;;;3.58;1.40;;;;;;;6.07;66.95;98038.06;10437954;28;20061;-83
2022/01/05 00:35:08;;;;;;;5.22;1.77;;;;;;;5.99;66.98;98034.38;10447054;28;20096;-83
2022/01/05 00:40:10;;;;;;;9.90;3.38;;;;;;;6.03;66.99;98041.00;10436560;28;20103;-83
2022/01/05 00:45:12;;;;;;;13.48;6.35;;;;;;;6.13;67.05;98035.03;10438208;28;20063;-82
2022/01/05 00:50:14;;;;;;;9.85;4.25;;;;;;;6.22;66.69;98036.16;10444796;28;20060;-83
2022/01/05 00:55:16;;;;;;;5.72;2.60;;;;;;;6.29;66.62;98042.56;10444215;28;20061;-83
2022/01/05 01:00:17;;;;;;;9.65;4.55;;;;;;;6.38;66.65;98051.47;10444233;28;20158;-83
2022/01/05 01:05:19;;;;;;;2.03;1.10;;;;;;;6.08;66.90;98065.66;10442807;28;20458;-83
2022/01/05 01:10:21;;;;;;;2.80;1.23;;;;;;;5.70;67.21;98097.81;10442832;28;20123;-83
2022/01/05 01:15:23;;;;;;;2.33;1.48;;;;;;;5.27;66.32;98123.25;10444012;28;20091;-83
2022/01/05 01:20:25;;;;;;;2.55;1.30;;;;;;;4.63;65.54;98139.59;10449962;28;20503;-83
2022/01/05 01:25:27;;;;;;;3.20;1.40;;;;;;;4.34;66.05;98156.97;10442746;28;20481;-82
2022/01/05 01:30:31;;;;;;;3.22;1.30;;;;;;;4.05;66.03;98183.81;10439699;28;20529;-78
2022/01/05 01:35:33;;;;;;;4.32;1.40;;;;;;;3.90;66.11;98202.00;10449102;28;20057;-79
2022/01/05 01:40:35;;;;;;;3.10;1.30;;;;;;;3.66;65.90;98219.78;10440148;28;20146;-79
2022/01/05 01:45:37;;;;;;;3.03;1.50;;;;;;;3.74;66.38;98254.59;10436580;28;20053;-78
2022/01/05 01:50:39;;;;;;;4.65;1.35;;;;;;;3.72;66.16;98263.38;10440553;28;20052;-78
2022/01/05 01:55:40;;;;;;;3.75;1.30;;;;;;;3.72;65.92;98281.47;10439471;28;20060;-78
2022/01/05 02:00:42;;;;;;;3.83;1.27;;;;;;;3.84;65.53;98309.22;10436624;28;20052;-78
2022/01/05 02:05:44;;;;;;;3.58;1.42;;;;;;;3.86;65.87;98325.50;10440322;28;20056;-78
2022/01/05 02:10:47;;;;;;;3.55;1.30;;;;;;;3.88;65.36;98336.59;10438194;28;20111;-78
2022/01/05 02:15:48;;;;;;;2.83;1.05;;;;;;;3.71;65.24;98352.19;10437864;28;20060;-78
2022/01/05 02:21:07;;;;;;;3.17;1.45;;;;;;;3.80;65.63;98346.50;10436837;28;20563;-78
2022/01/05 02:26:11;;;;;;;1.75;1.00;;;;;;;3.74;65.62;98352.03;10440537;28;20144;-79
2022/01/05 02:31:13;;;;;;;2.85;1.10;;;;;;;3.68;65.77;98367.88;10437242;28;20049;-78
2022/01/05 02:36:18;;;;;;;3.03;1.10;;;;;;;3.71;65.75;98385.78;10437450;28;20060;-78
2022/01/05 02:41:21;;;;;;;1.27;1.00;;;;;;;3.69;65.58;98401.41;10438294;28;20063;-79
2022/01/05 02:46:23;;;;;;;3.40;1.08;;;;;;;3.64;65.33;98408.56;10437016;28;20155;-78
2022/01/05 02:51:25;;;;;;;3.50;1.27;;;;;;;3.35;65.42;98421.44;10435931;28;20059;-78
2022/01/05 02:56:27;;;;;;;4.88;1.23;;;;;;;3.30;65.90;98407.94;10437081;28;20057;-78
2022/01/05 03:01:29;;;;;;;6.63;1.35;;;;;;;3.31;65.51;98419.94;10437425;28;20049;-78
2022/01/05 03:06:31;;;;;;;4.90;1.17;;;;;;;3.29;65.68;98430.38;10442834;28;20088;-78
2022/01/05 03:11:33;;;;;;;4.13;1.40;;;;;;;3.30;65.13;98423.44;10442786;28;20080;-79
2022/01/05 03:16:35;;;;;;;4.75;1.45;;;;;;;3.36;65.24;98430.84;10441699;28;20118;-78
2022/01/05 03:21:37;;;;;;;6.25;1.30;;;;;;;3.41;64.83;98421.09;10442357;28;20106;-78
2022/01/05 03:26:39;;;;;;;4.60;1.60;;;;;;;3.43;65.02;98432.19;10441027;28;20142;-78
2022/01/05 03:31:40;;;;;;;4.32;1.50;;;;;;;3.33;64.79;98442.22;10441438;28;20103;-78
2022/01/05 03:36:42;;;;;;;6.40;1.40;;;;;;;3.34;64.75;98454.19;10441760;28;20083;-78
2022/01/05 03:41:44;;;;;;;6.28;1.40;;;;;;;3.43;64.65;98470.97;10441290;28;20091;-78
2022/01/05 03:46:46;;;;;;;5.00;1.45;;;;;;;3.38;64.40;98471.19;10442739;28;20084;-78
2022/01/05 03:51:48;;;;;;;5.20;1.50;;;;;;;3.26;64.68;98483.94;10442622;28;20096;-78
2022/01/05 03:56:50;;;;;;;7.93;1.80;;;;;;;3.46;64.62;98492.28;10440249;28;20384;-78
2022/01/05 04:01:51;;;;;;;8.57;2.65;;;;;;;3.48;64.37;98500.78;10440994;28;20057;-79
2022/01/05 04:06:53;;;;;;;13.95;3.05;;;;;;;3.30;64.09;98511.28;10436243;28;20494;-78
2022/01/05 04:11:55;;;;;;;10.57;3.10;;;;;;;3.32;64.94;98514.59;10432214;28;20507;-78
2022/01/05 04:16:57;;;;;;;11.52;3.65;;;;;;;3.33;64.52;98516.28;10432082;28;20073;-78
2022/01/05 04:21:58;;;;;;;13.20;3.30;;;;;;;3.30;64.73;98542.28;10435002;28;20056;-78
2022/01/05 04:27:00;;;;;;;8.45;3.75;;;;;;;3.30;64.93;98548.28;10441327;28;20111;-78
2022/01/05 04:32:02;;;;;;;14.00;3.85;;;;;;;3.45;64.21;98552.66;10443071;28;20132;-78
2022/01/05 04:37:06;;;;;;;9.35;3.28;;;;;;;3.45;63.97;98564.75;10440076;28;20072;-78
2022/01/05 04:42:08;;;;;;;11.95;3.40;;;;;;;3.43;64.24;98574.31;10459297;28;20149;-78
2022/01/05 04:47:12;;;;;;;11.88;4.00;;;;;;;3.34;64.16;98585.13;10441802;28;20053;-78
2022/01/05 04:52:14;;;;;;;14.13;3.40;;;;;;;3.27;64.26;98596.72;10443616;28;20506;-78
2022/01/05 04:57:16;;;;;;;10.77;3.33;;;;;;;2.98;63.29;98609.34;10427601;28;20076;-78
2022/01/05 05:02:18;;;;;;;12.15;3.10;;;;;;;3.09;63.49;98621.69;10442149;28;20049;-79
2022/01/05 05:07:25;;;;;;;13.40;3.30;;;;;;;2.99;63.26;98625.66;10440175;28;20422;-78
2022/01/05 05:12:26;;;;;;;13.07;3.30;;;;;;;2.87;62.90;98636.59;10440869;28;20076;-78
2022/01/05 05:17:28;;;;;;;9.98;2.70;;;;;;;2.87;62.01;98652.94;10443341;28;20399;-78
2022/01/05 05:22:30;;;;;;;10.70;3.60;;;;;;;2.86;61.92;98660.75;10440036;28;20148;-78
2022/01/05 05:27:33;;;;;;;15.88;6.20;;;;;;;2.95;61.64;98665.47;10445171;28;20056;-78
2022/01/05 05:32:35;;;;;;;14.43;3.95;;;;;;;3.02;61.18;98672.84;10457842;28;20060;-79
2022/01/05 05:37:37;;;;;;;11.63;2.85;;;;;;;2.99;61.83;98683.31;10455008;28;20052;-79
2022/01/05 05:42:38;;;;;;;10.32;2.95;;;;;;;2.98;61.29;98684.25;10456776;28;20057;-80
2022/01/05 05:47:40;;;;;;;9.50;3.20;;;;;;;2.93;61.07;98683.63;10463345;28;20068;-79
2022/01/05 05:52:42;;;;;;;11.90;2.95;;;;;;;2.65;61.23;98685.00;10452714;28;20053;-79
2022/01/05 05:57:44;;;;;;;8.90;3.00;;;;;;;2.46;61.43;98692.78;10459752;28;20084;-80
2022/01/05 06:02:47;;;;;;;10.65;2.88;;;;;;;2.29;61.71;98697.06;10459167;28;20053;-79
2022/01/05 06:07:49;;;;;;;12.63;3.03;;;;;;;2.20;61.99;98706.06;10456464;28;20067;-79
2022/01/05 06:12:51;;;;;;;11.75;2.80;;;;;;;2.24;62.07;98720.47;10453470;28;20073;-79
2022/01/05 06:17:52;;;;;;;12.57;3.10;;;;;;;2.26;61.55;98728.97;10449729;28;20111;-79
2022/01/05 06:22:54;;;;;;;8.27;2.55;;;;;;;2.15;61.81;98726.88;10441982;28;20067;-79
2022/01/05 06:27:56;;;;;;;12.13;3.45;;;;;;;1.90;61.58;98748.69;10439700;28;20160;-78
2022/01/05 06:32:58;;;;;;;12.57;3.58;;;;;;;1.88;61.82;98753.06;10438110;28;20048;-79
2022/01/05 06:38:00;;;;;;;12.60;2.90;;;;;;;1.84;61.49;98770.41;10438192;28;20503;-79
2022/01/05 06:43:03;;;;;;;8.70;2.42;;;;;;;1.76;61.62;98776.78;10439908;28;20095;-79
2022/01/05 06:48:04;;;;;;;9.40;2.72;;;;;;;1.60;61.57;98789.50;10442583;28;20084;-79
2022/01/05 06:53:06;;;;;;;9.25;2.70;;;;;;;1.55;61.45;98791.41;10439827;28;20056;-79
2022/01/05 06:58:08;;;;;;;12.02;2.40;;;;;;;1.44;61.77;98795.34;10438387;28;20580;-79
2022/01/05 07:03:10;;;;;;;9.25;2.50;;;;;;;1.48;61.94;98799.47;10437470;28;20151;-79
2022/01/05 07:08:14;;;;;;;11.73;3.00;;;;;;;1.44;61.99;98803.06;10437156;28;20060;-79
2022/01/05 07:13:15;;;;;;;10.65;2.20;;;;;;;1.41;61.70;98810.91;10437082;28;20128;-79
2022/01/05 07:18:17;;;;;;;9.68;2.50;;;;;;;1.22;61.52;98815.94;10437174;28;20104;-82
2022/01/05 07:23:19;;;;;;;9.00;2.47;;;;;;;1.14;61.53;98818.84;10438845;28;20138;-82
2022/01/05 07:28:21;;;;;;;11.57;2.85;;;;;;;1.17;61.07;98826.47;10437417;28;20084;-81
2022/01/05 07:33:24;;;;;;;12.57;2.42;;;;;;;1.20;61.02;98833.19;10453929;28;20493;-82
2022/01/05 07:38:27;;;;;;;9.38;2.30;;;;;;;1.22;61.09;98839.97;10436302;28;20578;-82
2022/01/05 07:43:29;;;;;;;11.90;2.58;;;;;;;1.13;61.01;98842.94;10430965;28;20091;-82
2022/01/05 07:48:30;;;;;;;9.98;2.90;;;;;;;1.20;60.94;98846.91;10446195;28;20477;-82
2022/01/05 07:53:32;;;;;;;9.95;2.67;;;;;;;1.20;60.81;98857.22;10438897;28;20106;-82
2022/01/05 07:58:35;;;;;;;13.88;3.60;;;;;;;1.17;60.83;98865.06;10438976;28;20142;-82
2022/01/05 08:03:38;;;;;;;10.57;2.65;;;;;;;1.14;60.70;98862.59;10437060;28;20048;-81
2022/01/05 08:08:54;;;;;;;11.02;3.17;;;;;;;1.19;60.09;98873.59;10437232;28;20068;-82
2022/01/05 08:13:56;;;;;;;14.93;2.75;;;;;;;1.22;60.09;98868.31;10436988;28;20147;-82
2022/01/05 08:18:58;;;;;;;7.85;2.70;;;;;;;1.30;60.21;98873.16;10438549;28;20053;-82
2022/01/05 08:23:59;;;;;;;13.90;2.92;;;;;;;1.38;60.21;98884.81;10440475;28;20045;-82
2022/01/05 08:29:01;;;;;;;10.20;2.58;;;;;;;1.72;59.76;98883.50;10436074;28;20572;-81
2022/01/05 08:34:03;;;;;;;11.88;2.80;;;;;;;1.97;59.80;98887.56;10435439;28;20573;-82
2022/01/05 08:39:05;;;;;;;9.85;2.67;;;;;;;1.99;58.85;98895.25;10436658;28;20088;-81
2022/01/05 08:44:07;;;;;;;12.93;3.45;;;;;;;2.03;58.26;98889.88;10435813;28;20563;-81
2022/01/05 08:49:10;;;;;;;16.42;3.28;;;;;;;2.08;58.74;98913.75;10434992;28;20407;-81
2022/01/05 08:54:11;;;;;;;12.32;3.05;;;;;;;2.27;58.34;98913.81;10437500;28;20144;-81
2022/01/05 08:59:13;;;;;;;11.75;2.97;;;;;;;2.26;58.09;98912.13;10435579;28;20057;-82
2022/01/05 09:04:15;;;;;;;12.18;3.22;;;;;;;2.36;57.79;98920.34;10436208;28;20057;-82
2022/01/05 09:09:16;;;;;;;12.75;2.90;;;;;;;2.41;57.91;98916.66;10438220;28;20114;-81
2022/01/05 09:14:18;;;;;;;15.02;3.15;;;;;;;2.30;57.52;98928.34;10436713;28;20053;-81
2022/01/05 09:19:22;;;;;;;10.35;2.40;;;;;;;2.41;57.36;98937.28;10440860;28;20052;-82
2022/01/05 09:24:25;;;;;;;12.98;2.55;;;;;;;2.40;57.62;98935.59;10440845;28;21012;-81
2022/01/05 09:29:27;;;;;;;13.43;2.95;;;;;;;2.56;57.51;98940.97;10441902;28;20122;-82
2022/01/05 09:34:32;;;;;;;9.25;2.42;;;;;;;2.56;56.84;98943.56;10442335;28;20091;-82
2022/01/05 09:44:57;;;;;;;11.13;2.72;;;;;;;2.80;56.81;98965.72;10441954;28;20080;-79
2022/01/05 09:50:03;;;;;;;14.15;2.90;;;;;;;2.74;56.43;98951.34;10440893;28;20529;-78
2022/01/05 09:55:07;;;;;;;13.85;2.88;;;;;;;2.80;56.30;98953.66;10447264;28;20057;-78
2022/01/05 10:00:12;;;;;;;9.40;2.83;;;;;;;3.13;56.09;98958.22;10438015;28;20057;-79
2022/01/05 10:05:16;;;;;;;17.63;4.03;;;;;;;3.03;56.38;98957.78;10456056;28;20056;-78
2022/01/05 10:10:17;;;;;;;13.88;2.70;;;;;;;3.14;56.03;98949.53;10438446;28;20110;-79
2022/01/05 10:15:25;;;;;;;11.32;2.72;;;;;;;3.31;56.14;98941.88;10440912;28;20310;-78
2022/01/05 10:20:27;;;;;;;12.95;2.88;;;;;;;3.18;55.93;98941.59;10437369;28;20122;-79
2022/01/05 10:25:29;;;;;;;10.75;3.00;;;;;;;3.24;55.96;98955.97;10438433;28;20144;-79
2022/01/05 10:30:47;;;;;;;9.32;2.25;;;;;;;3.12;54.74;98953.94;10440783;28;20146;-79
2022/01/05 10:35:56;;;;;;;9.30;2.40;;;;;;;3.42;55.48;98950.81;10438303;28;20136;-79
2022/01/05 10:40:57;;;;;;;8.40;2.55;;;;;;;3.93;55.19;98968.22;10447291;28;20053;-80
2022/01/05 10:46:00;;;;;;;9.60;2.58;;;;;;;4.01;55.04;98941.97;10437895;28;20049;-80
2022/01/05 10:51:05;;;;;;;14.20;2.97;;;;;;;3.85;54.82;98962.56;10438948;28;20637;-80
2022/01/05 10:56:07;;;;;;;12.25;2.67;;;;;;;3.84;54.81;98966.09;10439412;28;20057;-80
2022/01/05 11:01:26;;;;;;;10.55;2.35;;;;;;;3.88;53.64;98960.66;10439387;28;20053;-80
2022/01/05 11:06:28;;;;;;;9.82;2.53;;;;;;;3.99;53.98;98954.16;10437156;28;20056;-80
2022/01/05 11:11:38;;;;;;;14.30;2.75;;;;;;;4.03;53.65;98959.09;10437926;28;20092;-80
2022/01/05 11:16:44;;;;;;;9.50;2.30;;;;;;;4.16;54.15;98960.19;10438172;28;20061;-79
2022/01/05 11:22:14;;;;;;;9.35;2.50;;;;;;;4.17;53.09;98954.09;10438902;28;20060;-80
2022/01/05 11:27:22;;;;;;;10.00;2.50;;;;;;;4.31;53.67;98937.91;10431545;28;20092;-80
2022/01/05 11:32:27;;;;;;;9.85;2.38;;;;;;;4.25;53.73;98946.78;10436093;28;20053;-79
2022/01/05 11:37:29;;;;;;;8.85;2.60;;;;;;;4.48;53.61;98946.47;10436285;28;20060;-80
2022/01/05 11:42:37;;;;;;;9.15;2.30;;;;;;;4.32;53.26;98957.66;10437110;28;20114;-79
2022/01/05 11:47:40;;;;;;;8.55;2.25;;;;;;;4.38;53.30;98960.78;10427628;28;20396;-80
2022/01/05 11:53:00;;;;;;;7.68;2.45;;;;;;;4.26;53.14;98968.31;10445263;28;20045;-79
2022/01/05 11:58:16;;;;;;;10.60;2.50;;;;;;;4.32;53.00;98970.63;10434920;28;20099;-80
2022/01/05 12:03:58;;;;;;;11.65;2.58;;;;;;;4.02;53.56;98969.53;10434958;28;20564;-79
2022/01/05 12:09:20;;;;;;;11.40;3.15;;;;;;;3.83;53.77;98977.31;10435876;28;20072;-79
2022/01/05 12:14:21;;;;;;;7.78;2.20;;;;;;;4.00;54.28;98966.19;10435189;28;20052;-79
2022/01/05 12:19:24;;;;;;;18.02;7.35;;;;;;;4.20;54.07;98966.03;10435219;28;20060;-80
2022/01/05 12:25:00;;;;;;;9.63;2.30;;;;;;;4.34;53.81;98974.81;10435807;28;20057;-79
2022/01/05 12:30:17;;;;;;;13.63;5.03;;;;;;;4.25;53.11;98984.78;10452251;28;20061;-79
2022/01/05 12:35:20;;;;;;;9.25;2.53;;;;;;;4.46;54.05;98986.28;10434591;28;20850;-79
2022/01/05 12:40:31;;;;;;;9.57;2.83;;;;;;;4.56;53.20;98970.22;10434327;28;20156;-79
2022/01/05 12:45:55;;;;;;;9.70;2.92;;;;;;;4.35;53.35;98973.06;10440409;28;20150;-79
2022/01/05 12:51:20;;;;;;;11.75;2.60;;;;;;;4.34;53.34;98982.56;10459179;28;20967;-79
2022/01/05 12:56:27;;;;;;;11.13;2.65;;;;;;;4.30;53.54;98987.97;10442528;28;20134;-79
2022/01/05 13:01:30;;;;;;;11.23;2.60;;;;;;;4.49;54.20;98989.59;10444293;28;20076;-79
2022/01/05 13:06:33;;;;;;;12.30;2.30;;;;;;;4.37;54.26;98990.16;10433418;28;20071;-79
2022/01/05 13:11:52;;;;;;;11.00;2.47;;;;;;;4.09;54.06;98994.22;10442204;28;20045;-79
2022/01/05 13:16:58;;;;;;;8.57;2.65;;;;;;;4.32;54.43;98994.75;10442686;28;20083;-79
2022/01/05 13:22:10;;;;;;;9.15;2.28;;;;;;;4.44;54.18;98996.72;10457281;28;20044;-79
2022/01/05 13:27:14;;;;;;;11.88;2.20;;;;;;;4.45;54.77;98980.31;10441705;28;20154;-79
2022/01/05 13:32:18;;;;;;;10.18;2.58;;;;;;;4.45;54.73;98969.94;10441068;28;20053;-79
2022/01/05 13:37:34;;;;;;;8.77;2.53;;;;;;;4.37;54.50;98990.16;10435119;28;21048;-79
2022/01/05 13:42:43;;;;;;;8.63;2.10;;;;;;;4.39;54.56;98997.88;10457210;28;20068;-80
2022/01/05 13:47:46;;;;;;;9.85;2.80;;;;;;;4.43;55.22;98995.03;10440507;28;20564;-79
2022/01/05 13:52:59;;;;;;;10.38;2.60;;;;;;;4.24;55.64;99009.81;10440729;28;20502;-79
2022/01/05 13:58:24;;;;;;;10.65;3.35;;;;;;;4.30;55.61;99019.88;10439791;28;20049;-79
2022/01/05 14:03:29;;;;;;;11.35;2.42;;;;;;;4.23;55.71;99015.06;10440883;28;20057;-79
2022/01/05 14:08:35;;;;;;;8.15;2.33;;;;;;;4.34;55.65;99031.75;10439582;28;20106;-80
2022/01/05 14:13:41;;;;;;;9.52;2.55;;;;;;;4.34;56.06;99016.22;10455698;28;20146;-79
2022/01/05 14:18:47;;;;;;;12.20;2.42;;;;;;;4.44;55.71;99022.63;10429697;28;20048;-79
2022/01/05 14:23:48;;;;;;;12.85;2.80;;;;;;;4.40;55.85;99035.78;10439707;28;20048;-79
2022/01/05 14:28:51;;;;;;;9.10;2.20;;;;;;;4.26;56.06;99045.97;10440509;28;20482;-79
2022/01/05 14:34:19;;;;;;;10.20;2.55;;;;;;;4.29;55.75;99049.25;10439491;28;20048;-79
2022/01/05 14:39:22;;;;;;;7.55;2.00;;;;;;;4.18;56.30;99051.53;10439650;28;20053;-79
2022/01/05 14:44:33;;;;;;;8.10;2.20;;;;;;;4.30;55.90;99063.03;10448300;28;20118;-78
2022/01/05 14:49:56;;;;;;;11.20;3.90;;;;;;;4.11;57.51;99057.06;10459912;28;20077;-79
2022/01/05 14:54:58;;;;;;;9.45;2.40;;;;;;;4.27;57.64;99071.78;10461596;28;20057;-79
2022/01/05 15:00:00;;;;;;;9.68;2.70;;;;;;;4.04;58.31;99064.28;10461647;28;20131;-78
2022/01/05 15:05:03;;;;;;;12.27;3.17;;;;;;;4.00;58.53;99073.09;10457994;28;20095;-79
2022/01/05 15:10:06;;;;;;;11.23;2.85;;;;;;;4.04;58.68;99084.97;10448097;28;20481;-78
2022/01/05 15:15:08;;;;;;;10.07;2.78;;;;;;;3.99;59.19;99086.91;10439364;28;20126;-78
2022/01/05 15:20:10;;;;;;;10.85;3.03;;;;;;;4.04;59.31;99097.06;10437741;28;20065;-78
2022/01/05 15:25:12;;;;;;;11.02;3.28;;;;;;;3.92;59.82;99095.88;10436961;28;21083;-78
2022/01/05 15:30:14;;;;;;;11.02;2.83;;;;;;;3.83;60.07;99104.03;10437997;28;20056;-78
2022/01/05 15:35:17;;;;;;;12.80;2.85;;;;;;;3.82;60.00;99094.59;10434457;28;20115;-79
2022/01/05 15:40:19;;;;;;;13.80;3.67;;;;;;;3.82;59.99;99092.03;10435186;28;20115;-79
2022/01/05 15:45:22;;;;;;;10.93;2.60;;;;;;;3.68;59.81;99109.91;10436042;28;20052;-78
2022/01/05 15:50:29;;;;;;;10.93;3.30;;;;;;;3.89;59.72;99121.88;10436558;28;20142;-78
2022/01/05 15:55:38;;;;;;;10.10;2.83;;;;;;;3.86;59.41;99132.38;10435861;28;20052;-78
2022/01/05 16:06:07;;;;;;;10.40;2.70;;;;;;;3.94;59.38;99158.75;10436018;28;20057;-79
2022/01/05 16:11:09;;;;;;;10.55;3.28;;;;;;;3.85;60.05;99167.75;10435820;28;20057;-78
2022/01/05 16:16:11;;;;;;;9.07;2.90;;;;;;;3.85;60.41;99166.91;10436670;28;20609;-79
2022/01/05 16:21:14;;;;;;;11.98;3.67;;;;;;;3.67;60.81;99152.16;10442780;28;20157;-79
2022/01/05 16:26:17;;;;;;;10.13;3.20;;;;;;;3.64;61.30;99163.47;10443379;28;20426;-78
2022/01/05 16:31:19;;;;;;;9.98;3.20;;;;;;;3.71;60.98;99145.97;10441641;28;20119;-79
2022/01/05 16:36:21;;;;;;;10.68;2.78;;;;;;;3.65;61.04;99154.00;10442919;28;20064;-78
2022/01/05 16:41:24;;;;;;;9.18;2.70;;;;;;;3.67;61.38;99157.34;10442313;28;20115;-78
2022/01/05 16:46:26;;;;;;;10.27;2.60;;;;;;;3.70;61.60;99176.13;10443090;28;20152;-77
2022/01/05 16:51:29;;;;;;;9.52;2.58;;;;;;;3.56;62.01;99169.88;10441321;28;20143;-78
2022/01/05 17:01:52;;;;;;;11.90;4.32;;;;;;;3.73;61.64;99183.78;10442574;28;20148;-78
2022/01/05 17:06:54;;;;;;;9.38;3.67;;;;;;;3.76;61.18;99182.81;10441747;28;20049;-77
2022/01/05 17:11:56;;;;;;;10.43;3.33;;;;;;;3.71;61.29;99184.75;10441455;28;20092;-78
2022/01/05 17:16:58;;;;;;;9.88;3.20;;;;;;;3.70;61.35;99185.66;10441377;28;20063;-77
2022/01/05 17:22:00;;;;;;;8.23;2.50;;;;;;;3.68;61.36;99190.88;10440739;28;20057;-80
2022/01/05 17:27:03;;;;;;;10.35;2.90;;;;;;;3.76;60.84;99198.31;10440948;28;20061;-77
2022/01/05 17:32:05;;;;;;;8.93;2.88;;;;;;;3.77;61.22;99210.34;10440653;28;20565;-78
2022/01/05 17:37:07;;;;;;;11.25;2.88;;;;;;;3.68;61.52;99213.34;10441141;28;20056;-78
2022/01/05 17:42:09;;;;;;;10.30;2.65;;;;;;;3.76;61.09;99237.13;10441338;28;20136;-78
2022/01/05 17:47:11;;;;;;;10.88;2.47;;;;;;;3.82;61.08;99234.28;10440314;28;20635;-77
2022/01/05 17:52:13;;;;;;;11.75;2.60;;;;;;;3.78;61.58;99243.06;10439862;28;20510;-77
2022/01/05 17:57:15;;;;;;;9.25;2.78;;;;;;;3.84;61.51;99248.81;10456460;28;20630;-84
2022/01/05 18:02:16;;;;;;;12.55;2.65;;;;;;;3.86;61.71;99262.53;10472632;28;20084;-84
2022/01/05 18:07:19;;;;;;;12.15;4.05;;;;;;;3.93;61.60;99255.34;10470549;28;20068;-84
2022/01/05 18:12:21;;;;;;;11.35;2.80;;;;;;;3.82;61.70;99270.47;10466307;28;20049;-81
2022/01/05 18:17:22;;;;;;;9.20;2.83;;;;;;;3.82;61.98;99275.66;10463742;28;20068;-81
2022/01/05 18:22:24;;;;;;;13.90;2.90;;;;;;;3.88;61.77;99284.00;10466033;28;20076;-82
2022/01/05 18:27:26;;;;;;;8.38;2.58;;;;;;;3.92;62.16;99296.81;10442510;28;20167;-82
2022/01/05 18:32:28;;;;;;;10.98;3.25;;;;;;;3.85;62.43;99311.75;10436864;28;20443;-81
2022/01/05 18:37:33;;;;;;;8.57;2.80;;;;;;;3.80;62.90;99313.66;10439084;28;20092;-82
2022/01/05 18:42:36;;;;;;;9.60;3.10;;;;;;;3.96;62.61;99324.22;10438142;28;20053;-82
2022/01/05 18:47:38;;;;;;;8.77;2.65;;;;;;;3.89;62.80;99323.63;10439016;28;20174;-82
2022/01/05 18:52:39;;;;;;;11.43;3.67;;;;;;;3.88;63.25;99339.22;10438168;28;20400;-82
2022/01/05 18:57:41;;;;;;;10.77;3.15;;;;;;;3.92;63.03;99336.47;10437308;28;20060;-82
2022/01/05 19:02:43;;;;;;;9.77;3.15;;;;;;;3.80;63.61;99339.53;10440624;28;20080;-82
2022/01/05 19:07:45;;;;;;;9.88;3.22;;;;;;;3.76;64.09;99330.22;10452848;28;20217;-82
2022/01/05 19:12:47;;;;;;;8.07;3.53;;;;;;;3.88;63.71;99336.66;10435002;28;20114;-81
2022/01/05 19:17:49;;;;;;;10.27;3.55;;;;;;;3.81;64.07;99347.22;10440415;28;20159;-82
2022/01/05 19:22:51;;;;;;;12.40;3.50;;;;;;;3.85;64.17;99342.78;10442087;28;20048;-82
2022/01/05 19:27:53;;;;;;;11.48;3.45;;;;;;;3.96;63.85;99350.94;10438313;28;20080;-82
2022/01/05 19:32:54;;;;;;;14.82;7.28;;;;;;;4.08;63.63;99357.34;10438006;28;20122;-82
2022/01/05 19:37:56;;;;;;;10.20;3.60;;;;;;;4.13;63.45;99364.00;10437868;28;20096;-82
2022/01/05 19:42:58;;;;;;;15.32;4.80;;;;;;;4.10;63.71;99352.94;10437506;28;20084;-82
2022/01/05 19:47:59;;;;;;;8.88;3.25;;;;;;;4.17;63.59;99359.56;10436992;28;20506;-83
2022/01/05 19:53:04;;;;;;;8.85;3.70;;;;;;;4.19;63.63;99365.50;10436994;28;20111;-82
2022/01/05 19:58:10;;;;;;;9.60;3.72;;;;;;;4.11;63.76;99365.81;10436097;28;20101;-83
2022/01/05 20:03:14;;;;;;;8.32;3.53;;;;;;;4.23;63.54;99380.81;10438766;28;20190;-83
2022/01/05 20:08:18;;;;;;;9.90;3.63;;;;;;;4.19;63.61;99389.59;10436204;28;20102;-83
2022/01/05 20:13:21;;;;;;;8.98;2.80;;;;;;;4.26;63.39;99397.97;10436578;28;20137;-83
2022/01/05 20:18:22;;;;;;;8.65;2.83;;;;;;;4.29;63.16;99396.06;10437535;28;20080;-83
2022/01/05 20:23:27;;;;;;;10.55;3.40;;;;;;;4.28;63.13;99404.75;10439163;28;20114;-83
2022/01/05 20:28:29;;;;;;;9.00;3.30;;;;;;;4.31;63.18;99417.56;10438753;28;20149;-82
2022/01/05 20:33:31;;;;;;;9.88;3.83;;;;;;;4.41;62.99;99415.44;10436111;28;20108;-83
2022/01/05 20:38:33;;;;;;;8.85;3.58;;;;;;;4.36;63.32;99428.56;10435351;28;20088;-82
2022/01/05 20:43:35;;;;;;;7.82;3.78;;;;;;;4.45;63.26;99427.34;10435393;28;20084;-82
2022/01/05 20:48:37;;;;;;;9.13;3.53;;;;;;;4.48;63.74;99435.81;10435972;28;20064;-82
2022/01/05 20:53:39;;;;;;;8.80;3.60;;;;;;;4.42;64.05;99435.22;10435734;28;20088;-82
2022/01/05 20:58:41;;;;;;;10.85;3.80;;;;;;;4.38;64.40;99436.25;10434692;28;20136;-82
2022/01/05 21:03:42;;;;;;;5.30;3.33;;;;;;;4.35;64.28;99445.00;10436699;28;20052;-82
2022/01/05 21:08:45;;;;;;;6.95;3.08;;;;;;;4.21;64.57;99449.91;10442108;28;20092;-83
2022/01/05 21:13:48;;;;;;;10.07;3.17;;;;;;;4.07;64.65;99449.66;10440976;28;20522;-82
2022/01/05 21:18:51;;;;;;;6.93;3.00;;;;;;;3.98;64.99;99450.03;10458833;28;20053;-82
2022/01/05 21:23:54;;;;;;;9.95;3.38;;;;;;;3.88;65.14;99459.88;10443037;28;20053;-82
2022/01/05 21:28:56;;;;;;;6.68;2.50;;;;;;;3.85;65.38;99456.59;10441869;28;20052;-82
2022/01/05 21:33:58;;;;;;;6.85;2.65;;;;;;;3.73;65.96;99462.22;10441858;28;20071;-83
2022/01/05 21:38:59;;;;;;;7.15;2.60;;;;;;;3.75;65.71;99455.25;10441602;28;20233;-82
2022/01/05 21:44:01;;;;;;;7.47;2.83;;;;;;;3.68;65.73;99453.81;10441678;28;20088;-81
2022/01/05 21:49:03;;;;;;;6.22;2.30;;;;;;;3.71;65.77;99466.63;10441778;28;20048;-82
2022/01/05 21:54:06;;;;;;;7.35;3.10;;;;;;;3.86;65.69;99474.63;10442947;28;20118;-82
2022/01/05 21:59:08;;;;;;;6.68;2.70;;;;;;;3.93;65.29;99485.59;10442661;28;20057;-82
2022/01/05 22:04:10;;;;;;;5.05;2.30;;;;;;;3.99;65.24;99490.50;10442198;28;20191;-82
2022/01/05 22:09:12;;;;;;;8.25;2.67;;;;;;;3.93;65.25;99490.75;10441767;28;20143;-82
2022/01/05 22:14:13;;;;;;;7.63;3.17;;;;;;;3.90;65.13;99490.91;10441815;28;20501;-82
2022/01/05 22:19:15;;;;;;;9.82;3.50;;;;;;;4.01;65.35;99493.88;10440142;28;20150;-83
2022/01/05 22:24:19;;;;;;;8.05;2.70;;;;;;;4.13;65.29;99501.16;10440576;28;20107;-82
2022/01/05 22:29:21;;;;;;;8.05;3.00;;;;;;;4.21;65.06;99509.44;10446753;28;20056;-80
2022/01/05 22:34:23;;;;;;;8.30;2.92;;;;;;;4.19;65.27;99519.00;10440234;28;20057;-80
2022/01/05 22:39:25;;;;;;;8.07;3.13;;;;;;;4.27;65.09;99523.91;10440800;28;20095;-80
2022/01/05 22:44:26;;;;;;;10.27;3.30;;;;;;;4.21;65.10;99516.38;10440806;28;20144;-80
2022/01/05 22:49:28;;;;;;;9.57;3.10;;;;;;;4.30;65.08;99527.19;10440453;28;20060;-81
2022/01/05 22:54:31;;;;;;;11.07;3.70;;;;;;;4.29;65.25;99540.22;10439456;28;20089;-81
2022/01/05 22:59:33;;;;;;;7.43;3.13;;;;;;;4.28;65.57;99547.13;10437487;28;20064;-80
2022/01/05 23:04:35;;;;;;;10.93;3.40;;;;;;;4.22;65.92;99552.53;10437678;28;21044;-80
2022/01/05 23:09:38;;;;;;;10.85;3.53;;;;;;;4.14;66.23;99553.75;10437343;28;20065;-80
2022/01/05 23:14:47;;;;;;;7.55;3.33;;;;;;;4.20;66.19;99563.84;10435890;28;20069;-80
2022/01/05 23:19:48;;;;;;;8.30;3.10;;;;;;;4.20;66.36;99571.63;10438225;28;20565;-80
2022/01/05 23:24:50;;;;;;;7.82;2.75;;;;;;;4.18;66.50;99582.03;10435972;28;20052;-79
2022/01/05 23:29:52;;;;;;;6.70;2.75;;;;;;;4.11;66.73;99570.22;10430884;28;20451;-80
2022/01/05 23:34:54;;;;;;;7.65;3.08;;;;;;;4.21;66.21;99579.31;10432965;28;20139;-80
2022/01/05 23:39:56;;;;;;;7.35;2.90;;;;;;;4.22;66.52;99586.19;10433525;28;20537;-81
2022/01/05 23:45:01;;;;;;;7.88;3.17;;;;;;;4.18;66.83;99589.81;10437363;28;20060;-81
2022/01/05 23:50:03;;;;;;;7.57;3.05;;;;;;;4.35;66.13;99587.38;10435674;28;20079;-80
2022/01/05 23:55:06;;;;;;;6.22;3.00;;;;;;;4.38;65.92;99595.03;10435178;28;20084;-81
